Time;durP1;ratioP1;P1;durP2;ratioP2;P2;SDS_P1;SDS_P2;PMS_P1;PMS_P2;Temp;Humidity;BMP_temperature;BMP_pressure;BME280_temperature;BME280_humidity;BME280_pressure;Samples;Min_cycle;Max_cycle;Signal;HPM_P1;HPM_P2
2023/06/07 00:01:55;;;;;;;6.68;2.50;;;;;;;13.32;100.00;102061.72;4963406;28;20533;-69
2023/06/07 00:04:22;;;;;;;5.95;1.95;;;;;;;13.23;100.00;102039.13;4971221;28;20063;-68
2023/06/07 00:07:00;;;;;;;7.55;2.40;;;;;;;13.24;100.00;102057.50;4969822;28;20054;-69
2023/06/07 00:09:29;;;;;;;6.10;2.22;;;;;;;13.10;100.00;102046.47;4970516;28;20046;-69
2023/06/07 00:11:56;;;;;;;10.43;2.72;;;;;;;13.22;100.00;102061.06;4969042;28;20413;-68
2023/06/07 00:14:24;;;;;;;7.20;2.50;;;;;;;13.21;100.00;102049.69;4977248;28;20055;-69
2023/06/07 00:16:53;;;;;;;7.28;2.65;;;;;;;13.19;100.00;102062.03;4967564;28;20078;-69
2023/06/07 00:19:21;;;;;;;5.95;2.50;;;;;;;13.22;100.00;102061.94;4967937;28;20046;-69
2023/06/07 00:21:51;;;;;;;7.38;2.70;;;;;;;13.11;100.00;102043.81;4969892;28;20050;-69
2023/06/07 00:24:19;;;;;;;8.15;2.53;;;;;;;13.04;100.00;102044.88;4969078;28;20064;-69
2023/06/07 00:26:46;;;;;;;8.77;2.58;;;;;;;12.99;100.00;102059.91;4969698;28;20050;-69
2023/06/07 00:29:14;;;;;;;6.95;2.50;;;;;;;13.15;100.00;102049.00;4969629;28;20408;-68
2023/06/07 00:31:41;;;;;;;6.07;2.30;;;;;;;13.21;100.00;102057.59;4971029;28;20050;-69
2023/06/07 00:34:08;;;;;;;7.53;2.30;;;;;;;13.27;100.00;102049.50;4953542;28;20054;-69
2023/06/07 00:36:34;;;;;;;6.45;2.22;;;;;;;13.26;100.00;102047.81;4967833;28;20047;-68
2023/06/07 00:39:04;;;;;;;6.63;2.25;;;;;;;13.29;100.00;102041.59;4970395;28;20800;-69
2023/06/07 00:41:31;;;;;;;6.75;2.38;;;;;;;13.40;100.00;102036.03;4970733;28;20042;-68
2023/06/07 00:43:58;;;;;;;8.02;2.55;;;;;;;13.25;100.00;102058.38;4974426;28;20764;-69
2023/06/07 00:46:29;;;;;;;7.72;2.67;;;;;;;13.06;100.00;102044.84;4952297;28;20050;-68
2023/06/07 00:48:57;;;;;;;7.63;2.40;;;;;;;13.21;100.00;102049.69;4971162;28;20481;-69
2023/06/07 00:51:29;;;;;;;7.05;2.63;;;;;;;13.18;100.00;102038.41;4952885;28;20081;-68
2023/06/07 00:54:00;;;;;;;7.90;2.45;;;;;;;13.20;100.00;102050.59;4970591;28;20519;-68
2023/06/07 00:56:27;;;;;;;7.95;2.38;;;;;;;13.18;100.00;102041.03;4971070;28;20053;-68
2023/06/07 00:58:54;;;;;;;9.20;2.97;;;;;;;13.18;100.00;102036.63;4969373;28;20485;-69
2023/06/07 01:01:21;;;;;;;7.93;2.33;;;;;;;13.14;100.00;102040.25;4953161;28;20047;-69
2023/06/07 01:03:48;;;;;;;6.55;2.25;;;;;;;13.21;100.00;102038.28;4972339;28;20141;-68
2023/06/07 01:06:15;;;;;;;7.50;2.58;;;;;;;13.22;100.00;102040.88;4972008;28;20058;-68
2023/06/07 01:08:43;;;;;;;6.97;2.30;;;;;;;13.45;100.00;102050.78;4973872;28;20511;-68
2023/06/07 01:11:10;;;;;;;9.95;2.60;;;;;;;13.44;100.00;102051.72;4974028;28;20424;-70
2023/06/07 01:13:38;;;;;;;6.82;2.35;;;;;;;13.46;100.00;102044.63;4974303;28;20528;-68
2023/06/07 01:16:08;;;;;;;6.72;2.30;;;;;;;13.51;100.00;102035.72;4972539;28;20059;-68
2023/06/07 01:18:36;;;;;;;9.68;3.08;;;;;;;13.45;100.00;102044.66;4972877;28;20125;-68
2023/06/07 01:21:05;;;;;;;6.50;2.50;;;;;;;13.38;100.00;102051.03;4973709;28;20503;-69
2023/06/07 01:23:33;;;;;;;7.05;2.22;;;;;;;13.43;100.00;102042.09;4974023;28;20129;-69
2023/06/07 01:26:01;;;;;;;7.68;3.05;;;;;;;13.44;100.00;102029.81;4972803;28;20051;-68
2023/06/07 01:28:33;;;;;;;7.60;2.83;;;;;;;13.29;100.00;102036.31;4974215;28;20047;-68
2023/06/07 01:31:02;;;;;;;7.32;2.42;;;;;;;13.38;100.00;102036.09;4973201;28;20162;-69
2023/06/07 01:33:32;;;;;;;8.23;2.35;;;;;;;13.22;100.00;102029.50;4973333;28;20130;-69
2023/06/07 01:36:00;;;;;;;7.72;2.70;;;;;;;13.48;100.00;102045.44;4971628;28;20192;-69
2023/06/07 01:38:27;;;;;;;6.15;2.10;;;;;;;13.62;100.00;102031.88;4972962;28;20042;-69
2023/06/07 01:40:55;;;;;;;5.65;1.80;;;;;;;13.70;100.00;102031.66;4955029;28;20106;-69
2023/06/07 01:43:23;;;;;;;7.78;2.78;;;;;;;13.64;100.00;102031.84;4973437;28;20061;-69
2023/06/07 01:45:51;;;;;;;7.07;2.60;;;;;;;13.21;100.00;102026.03;4966563;28;20081;-68
2023/06/07 01:48:18;;;;;;;7.03;2.67;;;;;;;13.30;100.00;102038.06;4965879;28;20464;-69
2023/06/07 01:50:45;;;;;;;7.97;2.65;;;;;;;13.20;100.00;102031.31;4970483;28;20470;-69
2023/06/07 01:53:12;;;;;;;8.10;2.90;;;;;;;13.09;100.00;102029.84;4973538;28;20046;-69
2023/06/07 01:55:39;;;;;;;7.82;2.90;;;;;;;12.98;100.00;102029.28;4972046;28;20359;-69
2023/06/07 01:58:26;;;;;;;10.02;3.00;;;;;;;12.84;100.00;101994.63;4972279;28;20503;-69
2023/06/07 02:01:24;;;;;;;9.63;3.00;;;;;;;12.94;100.00;102017.13;4972459;28;20346;-68
2023/06/07 02:03:53;;;;;;;7.07;2.60;;;;;;;13.25;100.00;102034.69;4964153;28;20046;-69
2023/06/07 02:06:30;;;;;;;6.65;2.35;;;;;;;13.28;100.00;102016.22;4971679;28;20453;-69
2023/06/07 02:09:06;;;;;;;8.05;2.75;;;;;;;13.35;100.00;102025.69;4955019;28;20057;-69
2023/06/07 02:11:34;;;;;;;7.93;2.50;;;;;;;13.29;100.00;102028.44;4972344;28;20050;-69
2023/06/07 02:14:01;;;;;;;7.20;2.53;;;;;;;13.37;100.00;102017.72;4971983;28;20449;-69
2023/06/07 02:16:35;;;;;;;5.68;2.10;;;;;;;13.34;100.00;102026.56;4976345;28;20064;-69
2023/06/07 02:19:07;;;;;;;6.90;2.60;;;;;;;13.25;100.00;102024.16;4972850;28;20057;-69
2023/06/07 02:21:35;;;;;;;9.77;2.65;;;;;;;13.31;100.00;102029.28;4955535;28;20118;-69
2023/06/07 02:24:05;;;;;;;8.77;2.60;;;;;;;13.35;100.00;102016.91;4971664;28;20093;-69
2023/06/07 02:26:33;;;;;;;6.18;2.38;;;;;;;13.36;100.00;102011.59;4970254;28;20225;-68
2023/06/07 02:29:02;;;;;;;9.57;2.88;;;;;;;13.54;100.00;102015.47;4973212;28;20054;-68
2023/06/07 02:31:29;;;;;;;5.95;1.95;;;;;;;13.66;100.00;102016.88;4972382;28;20053;-68
2023/06/07 02:33:56;;;;;;;8.00;3.00;;;;;;;13.33;100.00;102018.72;4963038;28;20062;-68
2023/06/07 02:36:25;;;;;;;8.75;3.35;;;;;;;13.35;100.00;102030.94;4970422;28;20046;-67
2023/06/07 02:38:51;;;;;;;7.45;2.45;;;;;;;13.37;100.00;102025.59;4978846;28;20070;-69
2023/06/07 02:41:18;;;;;;;8.18;3.22;;;;;;;13.41;100.00;102012.34;4972526;28;20401;-69
2023/06/07 02:43:45;;;;;;;8.63;2.80;;;;;;;13.51;100.00;102017.31;4971425;28;20134;-69
2023/06/07 02:46:12;;;;;;;6.47;2.50;;;;;;;13.31;100.00;102005.59;4970644;28;20520;-69
2023/06/07 02:48:39;;;;;;;9.68;2.60;;;;;;;13.25;100.00;102004.00;4972510;28;20043;-69
2023/06/07 02:51:06;;;;;;;7.30;2.30;;;;;;;13.42;100.00;102005.28;4954551;28;20051;-68
2023/06/07 02:53:33;;;;;;;7.07;2.28;;;;;;;13.30;100.00;102007.34;4968204;28;20519;-68
2023/06/07 02:56:00;;;;;;;8.05;2.67;;;;;;;13.27;100.00;102017.94;4969806;28;20477;-68
2023/06/07 02:58:27;;;;;;;5.88;2.38;;;;;;;13.11;100.00;102006.16;4953133;28;20082;-69
2023/06/07 03:00:54;;;;;;;7.65;2.47;;;;;;;13.06;100.00;102006.25;4968580;28;20057;-69
2023/06/07 03:03:21;;;;;;;7.88;2.83;;;;;;;13.10;100.00;101996.53;4968563;28;20102;-69
2023/06/07 03:05:49;;;;;;;7.00;2.38;;;;;;;13.09;100.00;102000.94;4971840;28;20134;-68
2023/06/07 03:08:16;;;;;;;8.93;2.88;;;;;;;13.02;100.00;101991.50;4970392;28;20043;-69
2023/06/07 03:10:43;;;;;;;8.90;2.90;;;;;;;13.08;100.00;101993.06;4953205;28;20054;-69
2023/06/07 03:13:10;;;;;;;6.90;2.40;;;;;;;13.05;100.00;101998.41;4952994;28;20047;-69
2023/06/07 03:15:37;;;;;;;7.45;2.63;;;;;;;13.01;100.00;101989.75;4967053;28;20055;-69
2023/06/07 03:18:04;;;;;;;7.82;2.60;;;;;;;13.15;100.00;101994.63;4972021;28;20100;-69
2023/06/07 03:20:34;;;;;;;6.20;2.28;;;;;;;13.15;100.00;102004.28;4972435;28;20081;-69
2023/06/07 03:23:04;;;;;;;6.32;2.05;;;;;;;12.83;100.00;101964.84;4970941;28;20047;-69
2023/06/07 03:25:31;;;;;;;8.15;2.75;;;;;;;12.87;100.00;101994.53;4969232;28;20057;-69
2023/06/07 03:27:58;;;;;;;6.30;2.20;;;;;;;12.87;100.00;101986.66;4970974;28;20086;-68
2023/06/07 03:30:25;;;;;;;8.00;2.85;;;;;;;12.91;100.00;101989.16;4950430;28;20519;-68
2023/06/07 03:32:52;;;;;;;7.95;2.97;;;;;;;12.99;100.00;101995.97;4967700;28;20093;-68
2023/06/07 03:35:20;;;;;;;8.23;2.97;;;;;;;12.96;100.00;101989.03;4969290;28;20059;-68
2023/06/07 03:37:47;;;;;;;9.60;3.30;;;;;;;12.90;100.00;101991.81;4970199;28;20055;-69
2023/06/07 03:40:14;;;;;;;7.05;2.33;;;;;;;12.98;100.00;101991.59;4970645;28;20445;-69
2023/06/07 03:42:41;;;;;;;7.45;2.78;;;;;;;12.96;100.00;101982.91;4971016;28;20129;-69
2023/06/07 03:45:08;;;;;;;7.97;3.08;;;;;;;13.08;100.00;101991.34;4961991;28;20054;-69
2023/06/07 03:47:35;;;;;;;7.60;2.88;;;;;;;13.02;100.00;101990.63;4967699;28;20046;-69
2023/06/07 03:50:02;;;;;;;8.15;3.58;;;;;;;12.97;100.00;101997.78;4968649;28;20069;-68
2023/06/07 03:52:29;;;;;;;7.25;2.70;;;;;;;12.91;100.00;101993.56;4970222;28;20603;-69
2023/06/07 03:54:56;;;;;;;7.07;2.72;;;;;;;12.97;100.00;101993.38;4971079;28;20055;-68
2023/06/07 03:57:23;;;;;;;8.25;3.10;;;;;;;13.07;100.00;101989.59;4971047;28;20408;-69
2023/06/07 03:59:49;;;;;;;7.57;2.75;;;;;;;13.02;100.00;101978.34;4970676;28;20050;-69
2023/06/07 04:02:16;;;;;;;8.13;3.00;;;;;;;13.10;100.00;102000.03;4961016;28;20051;-68
2023/06/07 04:04:43;;;;;;;9.77;2.90;;;;;;;13.07;100.00;101972.97;4971217;28;20398;-69
2023/06/07 04:07:10;;;;;;;9.38;3.47;;;;;;;12.99;100.00;101994.19;4952234;28;20133;-68
2023/06/07 04:09:36;;;;;;;8.63;3.28;;;;;;;12.73;100.00;101981.78;4980907;28;20053;-69
2023/06/07 04:12:05;;;;;;;8.63;2.95;;;;;;;12.77;100.00;101988.69;4953778;28;20057;-69
2023/06/07 04:14:32;;;;;;;7.22;2.60;;;;;;;12.75;100.00;101982.59;4952671;28;20121;-69
2023/06/07 04:17:00;;;;;;;9.13;3.05;;;;;;;12.89;100.00;101985.72;4969622;28;20444;-68
2023/06/07 04:19:26;;;;;;;8.65;2.97;;;;;;;12.97;100.00;101987.28;4953958;28;20051;-68
2023/06/07 04:21:53;;;;;;;8.50;3.17;;;;;;;13.08;100.00;101996.59;4967989;28;20054;-69
2023/06/07 04:24:20;;;;;;;7.88;3.20;;;;;;;12.87;100.00;101987.53;4970301;28;20050;-69
2023/06/07 04:26:48;;;;;;;8.18;3.10;;;;;;;12.87;100.00;101997.16;4969888;28;20066;-69
2023/06/07 04:29:14;;;;;;;9.13;3.15;;;;;;;12.82;100.00;101992.03;4970575;28;20149;-69
2023/06/07 04:31:42;;;;;;;10.57;3.35;;;;;;;12.82;100.00;102006.94;4970429;28;20049;-68
2023/06/07 04:34:09;;;;;;;7.85;2.95;;;;;;;13.02;100.00;102003.78;4954117;28;20058;-69
2023/06/07 04:36:38;;;;;;;6.05;2.15;;;;;;;13.32;100.00;102009.97;4969047;28;20082;-69
2023/06/07 04:39:09;;;;;;;7.05;2.45;;;;;;;13.50;100.00;101998.03;4981956;28;20133;-69
2023/06/07 04:41:36;;;;;;;8.43;3.00;;;;;;;13.22;100.00;101997.94;4976894;28;20058;-69
2023/06/07 04:44:03;;;;;;;7.07;2.75;;;;;;;13.18;100.00;102001.59;4973210;28;20049;-69
2023/06/07 04:46:30;;;;;;;6.60;2.22;;;;;;;13.18;100.00;101994.56;4973449;28;20054;-69
2023/06/07 04:48:58;;;;;;;6.85;2.55;;;;;;;13.20;100.00;101997.13;4973626;28;20457;-68
2023/06/07 04:51:26;;;;;;;7.28;3.00;;;;;;;13.21;100.00;102012.00;4974136;28;20073;-69
2023/06/07 04:53:58;;;;;;;6.72;2.15;;;;;;;13.14;100.00;102008.69;4972910;28;20642;-69
2023/06/07 04:56:28;;;;;;;6.68;2.42;;;;;;;13.28;100.00;101995.16;4972660;28;20046;-68
2023/06/07 04:58:55;;;;;;;6.75;2.13;;;;;;;13.20;100.00;101995.38;4973607;28;20051;-69
2023/06/07 05:01:22;;;;;;;7.97;3.00;;;;;;;12.96;100.00;101999.56;4974010;28;20390;-69
2023/06/07 05:03:57;;;;;;;7.07;2.58;;;;;;;12.99;100.00;102009.13;4973115;28;20474;-69
2023/06/07 05:06:23;;;;;;;5.45;2.03;;;;;;;13.13;100.00;101995.59;4972266;28;20072;-69
2023/06/07 05:08:50;;;;;;;7.45;2.75;;;;;;;13.32;100.00;102009.97;4982225;28;20051;-69
2023/06/07 05:11:17;;;;;;;6.47;2.28;;;;;;;13.20;100.00;102005.03;4955577;28;20049;-69
2023/06/07 05:13:46;;;;;;;6.45;2.22;;;;;;;13.03;100.00;102001.13;4970633;28;20117;-69
2023/06/07 05:16:16;;;;;;;9.93;2.97;;;;;;;13.25;100.00;102014.50;4954644;28;20055;-69
2023/06/07 05:18:46;;;;;;;7.80;2.55;;;;;;;13.17;100.00;101998.06;4973960;28;20514;-69
2023/06/07 05:21:15;;;;;;;8.80;2.25;;;;;;;13.34;100.00;102013.41;4972515;28;20057;-69
2023/06/07 05:23:42;;;;;;;6.38;2.10;;;;;;;13.48;100.00;102005.13;4967469;28;20568;-69
2023/06/07 05:26:08;;;;;;;6.20;2.55;;;;;;;13.26;100.00;101995.19;4973200;28;20509;-69
2023/06/07 05:28:35;;;;;;;7.32;2.65;;;;;;;13.39;100.00;102014.16;4955913;28;20082;-69
2023/06/07 05:31:02;;;;;;;7.78;3.08;;;;;;;13.17;100.00;102013.00;4973119;28;20051;-69
2023/06/07 05:33:30;;;;;;;7.13;2.53;;;;;;;13.24;100.00;101986.50;4973572;28;20083;-68
2023/06/07 05:35:57;;;;;;;6.85;2.40;;;;;;;13.43;100.00;102014.91;4971814;28;20416;-69
2023/06/07 05:38:24;;;;;;;6.82;2.50;;;;;;;13.67;100.00;102014.19;4970028;28;20437;-68
2023/06/07 05:40:54;;;;;;;8.40;2.55;;;;;;;13.66;100.00;102014.25;4972623;28;20472;-68
2023/06/07 05:43:21;;;;;;;8.15;2.78;;;;;;;13.51;100.00;102005.03;4971973;28;20057;-68
2023/06/07 05:45:48;;;;;;;6.60;2.28;;;;;;;13.59;100.00;101995.13;4970847;28;20055;-68
2023/06/07 05:48:14;;;;;;;5.43;1.98;;;;;;;13.57;100.00;101982.94;4955237;28;20046;-68
2023/06/07 05:50:41;;;;;;;8.50;3.05;;;;;;;13.57;100.00;101993.47;4970497;28;20046;-68
2023/06/07 05:53:08;;;;;;;7.18;2.50;;;;;;;13.60;100.00;101998.66;4971402;28;20051;-69
2023/06/07 05:55:34;;;;;;;6.53;2.25;;;;;;;13.66;100.00;101996.66;4971844;28;20051;-69
2023/06/07 05:58:01;;;;;;;7.43;2.50;;;;;;;13.59;100.00;101997.75;4972474;28;20059;-69
2023/06/07 06:00:28;;;;;;;7.68;2.47;;;;;;;13.85;100.00;102007.50;4971256;28;20050;-69
2023/06/07 06:02:56;;;;;;;9.73;2.67;;;;;;;13.99;100.00;102004.44;4972971;28;20577;-69
2023/06/07 06:05:27;;;;;;;7.93;3.03;;;;;;;13.81;100.00;102007.63;4971359;28;20050;-69
2023/06/07 06:07:55;;;;;;;10.55;3.88;;;;;;;13.85;100.00;102012.75;4971924;28;20488;-70
2023/06/07 06:10:23;;;;;;;9.38;3.15;;;;;;;13.87;100.00;102018.00;4976723;28;20137;-70
2023/06/07 06:12:50;;;;;;;9.18;3.47;;;;;;;13.70;100.00;102010.59;4971357;28;20121;-69
2023/06/07 06:15:16;;;;;;;8.30;3.58;;;;;;;13.61;100.00;102008.25;4969624;28;20054;-68
2023/06/07 06:17:43;;;;;;;8.43;2.72;;;;;;;13.70;100.00;102015.84;4957770;28;20051;-69
2023/06/07 06:20:11;;;;;;;7.85;2.95;;;;;;;13.46;100.00;102006.94;4970864;28;20050;-69
2023/06/07 06:22:38;;;;;;;7.28;2.88;;;;;;;13.34;100.00;102004.66;4969984;28;20145;-69
2023/06/07 06:25:05;;;;;;;6.50;2.28;;;;;;;13.69;100.00;102003.63;4968836;28;20057;-68
2023/06/07 06:27:32;;;;;;;7.22;2.72;;;;;;;13.76;100.00;102015.69;4965717;28;20058;-68
2023/06/07 06:29:58;;;;;;;8.25;3.08;;;;;;;13.73;100.00;102009.66;4972335;28;20380;-69
2023/06/07 06:32:25;;;;;;;7.03;2.40;;;;;;;13.65;100.00;102016.03;4971273;28;20047;-68
2023/06/07 06:34:52;;;;;;;7.10;2.60;;;;;;;13.56;100.00;102013.63;4954001;28;20050;-68
2023/06/07 06:37:19;;;;;;;9.35;3.03;;;;;;;13.64;100.00;101998.50;4967960;28;20663;-69
2023/06/07 06:39:47;;;;;;;9.02;2.80;;;;;;;14.04;100.00;102015.69;4971962;28;20712;-69
2023/06/07 06:42:14;;;;;;;8.35;2.42;;;;;;;14.44;100.00;102017.00;4971282;28;20082;-69
2023/06/07 06:44:40;;;;;;;9.02;2.30;;;;;;;14.40;100.00;102019.81;4971339;28;20054;-69
2023/06/07 06:47:07;;;;;;;8.07;3.05;;;;;;;14.03;100.00;102027.13;4971129;28;20043;-69
2023/06/07 06:49:34;;;;;;;7.53;2.80;;;;;;;14.03;100.00;102021.84;4971607;28;20078;-69
2023/06/07 06:52:01;;;;;;;9.65;4.03;;;;;;;13.96;100.00;102009.78;4971698;28;20050;-69
2023/06/07 06:54:27;;;;;;;11.02;3.35;;;;;;;13.80;100.00;102013.81;4970960;28;20057;-70
2023/06/07 06:56:54;;;;;;;6.20;2.38;;;;;;;14.23;100.00;102012.44;4968487;28;20054;-68
2023/06/07 06:59:21;;;;;;;7.70;2.60;;;;;;;14.55;100.00;101997.34;4971994;28;20042;-69
2023/06/07 07:01:48;;;;;;;7.28;2.40;;;;;;;14.65;100.00;102025.16;4970936;28;20491;-69
2023/06/07 07:04:15;;;;;;;9.35;3.10;;;;;;;14.39;100.00;102015.44;4971223;28;20173;-69
2023/06/07 07:06:43;;;;;;;10.27;3.35;;;;;;;14.19;100.00;102022.22;4970320;28;20055;-68
2023/06/07 07:09:10;;;;;;;7.45;2.75;;;;;;;14.06;100.00;102031.44;4956260;28;20489;-70
2023/06/07 07:11:37;;;;;;;7.47;2.60;;;;;;;14.11;100.00;102026.91;4972685;28;20073;-69
2023/06/07 07:14:05;;;;;;;7.18;2.60;;;;;;;14.28;100.00;102031.59;4971675;28;20046;-69
2023/06/07 07:16:31;;;;;;;7.05;2.42;;;;;;;14.45;100.00;102025.78;4971197;28;20078;-69
2023/06/07 07:19:00;;;;;;;7.10;2.40;;;;;;;14.50;100.00;102026.50;4968489;28;20409;-69
2023/06/07 07:21:27;;;;;;;12.38;3.35;;;;;;;14.70;100.00;102028.50;4965565;28;20177;-69
2023/06/07 07:23:55;;;;;;;9.65;2.72;;;;;;;14.48;100.00;102032.72;4971319;28;20055;-69
2023/06/07 07:26:22;;;;;;;8.70;3.25;;;;;;;14.41;100.00;102038.22;4970507;28;20129;-69
2023/06/07 07:28:48;;;;;;;7.43;2.70;;;;;;;14.78;100.00;102025.59;4971006;28;20055;-69
2023/06/07 07:31:15;;;;;;;9.13;3.03;;;;;;;14.61;100.00;102040.22;4971894;28;20051;-68
2023/06/07 07:33:42;;;;;;;8.48;2.78;;;;;;;14.41;100.00;102038.22;4966203;28;20055;-69
2023/06/07 07:36:09;;;;;;;11.45;3.30;;;;;;;14.14;100.00;102041.72;4969828;28;20061;-69
2023/06/07 07:38:37;;;;;;;9.80;2.92;;;;;;;14.27;100.00;102040.44;4971933;28;20051;-69
2023/06/07 07:41:07;;;;;;;8.13;2.42;;;;;;;14.53;100.00;102033.44;4971886;28;20503;-69
2023/06/07 07:43:33;;;;;;;7.43;2.72;;;;;;;14.64;100.00;102043.66;4971230;28;20472;-69
2023/06/07 07:46:03;;;;;;;8.07;3.10;;;;;;;14.51;100.00;102036.13;4968349;28;20440;-70
2023/06/07 07:48:30;;;;;;;10.95;3.30;;;;;;;14.40;100.00;102036.47;4969045;28;20074;-69
2023/06/07 07:50:57;;;;;;;9.32;3.08;;;;;;;14.10;100.00;102025.16;4969480;28;20189;-69
2023/06/07 07:53:24;;;;;;;6.85;2.58;;;;;;;14.35;100.00;102038.41;4968273;28;20043;-69
2023/06/07 07:55:51;;;;;;;11.18;2.63;;;;;;;14.51;100.00;102033.47;4958857;28;20368;-69
2023/06/07 07:58:18;;;;;;;9.38;3.03;;;;;;;14.63;100.00;102039.31;4971138;28;20472;-69
2023/06/07 08:00:44;;;;;;;6.43;2.28;;;;;;;14.77;100.00;102031.78;4964402;28;20046;-69
2023/06/07 08:03:12;;;;;;;8.55;2.40;;;;;;;14.62;100.00;102030.50;4970349;28;20097;-69
2023/06/07 08:05:39;;;;;;;7.15;2.65;;;;;;;14.82;100.00;102037.75;4969314;28;20057;-69
2023/06/07 08:08:06;;;;;;;11.88;3.95;;;;;;;14.71;100.00;102034.63;4970998;28;20059;-69
2023/06/07 08:10:33;;;;;;;9.00;2.75;;;;;;;14.78;100.00;102033.50;4970872;28;20039;-68
2023/06/07 08:13:00;;;;;;;8.27;3.38;;;;;;;14.88;100.00;102037.53;4969541;28;20137;-68
2023/06/07 08:15:26;;;;;;;7.40;2.67;;;;;;;15.06;100.00;102021.97;4969546;28;20059;-69
2023/06/07 08:17:53;;;;;;;6.25;2.40;;;;;;;15.33;100.00;102020.97;4956457;28;20211;-69
2023/06/07 08:20:20;;;;;;;8.52;3.15;;;;;;;15.28;100.00;102022.94;4971273;28;20043;-69
2023/06/07 08:22:50;;;;;;;7.40;2.70;;;;;;;15.31;100.00;102030.69;4971176;28;20055;-68
2023/06/07 08:25:17;;;;;;;8.98;3.25;;;;;;;14.90;100.00;102026.94;4970360;28;20059;-69
2023/06/07 08:27:48;;;;;;;9.77;3.30;;;;;;;15.05;100.00;102021.13;4970695;28;20228;-69
2023/06/07 08:30:14;;;;;;;9.27;3.30;;;;;;;14.82;100.00;102027.22;4966605;28;20039;-69
2023/06/07 08:32:43;;;;;;;10.00;2.60;;;;;;;15.22;100.00;102027.56;4949997;28;20098;-69
2023/06/07 08:35:10;;;;;;;9.32;2.90;;;;;;;15.14;100.00;102036.63;4973659;28;20093;-69
2023/06/07 08:37:38;;;;;;;7.38;2.90;;;;;;;14.94;100.00;102031.19;4970452;28;20138;-69
2023/06/07 08:40:05;;;;;;;6.90;2.53;;;;;;;15.33;100.00;102041.22;4969906;28;20049;-69
2023/06/07 08:42:33;;;;;;;12.57;3.35;;;;;;;14.88;100.00;102015.59;4960396;28;20063;-69
2023/06/07 08:45:01;;;;;;;9.00;3.10;;;;;;;14.87;100.00;102038.44;4966160;28;20125;-69
2023/06/07 08:47:28;;;;;;;9.15;4.93;;;;;;;15.63;100.00;102031.28;4971228;28;20502;-68
2023/06/07 08:49:56;;;;;;;7.55;2.88;;;;;;;15.54;100.00;102011.38;4970030;28;20097;-68
2023/06/07 08:52:24;;;;;;;9.02;3.08;;;;;;;15.63;100.00;102041.84;4952470;28;20047;-68
2023/06/07 08:54:58;;;;;;;9.63;3.40;;;;;;;15.49;100.00;102039.75;4960131;28;20428;-67
2023/06/07 08:57:26;;;;;;;10.70;2.75;;;;;;;15.31;100.00;102035.13;4961684;28;20552;-67
2023/06/07 08:59:53;;;;;;;9.00;3.08;;;;;;;15.59;100.00;102032.31;4970798;28;20467;-68
2023/06/07 09:02:19;;;;;;;7.40;2.45;;;;;;;15.61;100.00;102027.00;4971073;28;20053;-67
2023/06/07 09:04:46;;;;;;;7.13;2.88;;;;;;;15.44;100.00;102020.56;4968542;28;20055;-67
2023/06/07 09:07:13;;;;;;;7.60;2.85;;;;;;;15.45;100.00;102032.00;4969276;28;20050;-67
2023/06/07 09:09:43;;;;;;;7.03;2.35;;;;;;;15.75;100.00;102045.84;4961602;28;20139;-68
2023/06/07 09:12:13;;;;;;;7.47;3.05;;;;;;;15.64;100.00;102037.44;4967058;28;20527;-68
2023/06/07 09:14:40;;;;;;;9.10;3.47;;;;;;;15.42;100.00;102048.78;4978577;28;20400;-68
2023/06/07 09:17:07;;;;;;;8.00;3.10;;;;;;;15.75;100.00;102045.84;4970590;28;20305;-68
2023/06/07 09:19:38;;;;;;;7.60;2.70;;;;;;;15.82;100.00;102049.94;4970475;28;20043;-68
2023/06/07 09:22:11;;;;;;;7.32;2.53;;;;;;;15.96;100.00;102030.06;4970002;28;20050;-68
2023/06/07 09:24:38;;;;;;;7.13;2.53;;;;;;;15.45;100.00;102037.25;4968696;28;20125;-68
2023/06/07 09:27:06;;;;;;;7.82;3.20;;;;;;;15.17;100.00;102036.50;4955540;28;20137;-68
2023/06/07 09:29:40;;;;;;;9.45;3.33;;;;;;;15.27;100.00;102044.09;4973338;28;20125;-69
2023/06/07 09:32:20;;;;;;;7.38;2.92;;;;;;;15.48;100.00;102051.22;4974467;28;20443;-68
2023/06/07 09:34:48;;;;;;;9.02;3.47;;;;;;;15.63;100.00;102049.75;4973616;28;20093;-68
2023/06/07 09:37:20;;;;;;;8.43;3.20;;;;;;;15.35;100.00;102042.88;4972895;28;20047;-68
2023/06/07 09:39:52;;;;;;;6.85;2.67;;;;;;;15.74;100.00;102044.06;4973835;28;20086;-68
2023/06/07 09:42:19;;;;;;;7.53;2.92;;;;;;;15.61;100.00;102041.03;4973365;28;20392;-68
2023/06/07 09:44:46;;;;;;;10.18;3.38;;;;;;;15.53;100.00;102037.84;4973471;28;20170;-68
2023/06/07 09:47:23;;;;;;;8.73;3.42;;;;;;;15.47;100.00;102054.75;4973583;28;20050;-68
2023/06/07 09:49:54;;;;;;;7.85;2.85;;;;;;;15.33;100.00;102046.50;4974182;28;20049;-68
2023/06/07 09:52:27;;;;;;;7.72;2.47;;;;;;;15.19;100.00;102044.34;4974088;28;20046;-68
2023/06/07 09:54:56;;;;;;;7.97;3.10;;;;;;;15.52;100.00;102046.66;4972954;28;20484;-68
2023/06/07 09:57:25;;;;;;;7.78;2.85;;;;;;;15.93;100.00;102049.53;4971975;28;20052;-68
2023/06/07 10:00:08;;;;;;;8.05;3.03;;;;;;;15.70;100.00;102037.19;4969935;28;20126;-68
2023/06/07 10:02:35;;;;;;;8.02;3.03;;;;;;;15.30;100.00;102033.44;4960979;28;20055;-68
2023/06/07 10:05:02;;;;;;;7.75;3.03;;;;;;;15.68;100.00;102036.41;4971869;28;20531;-68
2023/06/07 10:07:38;;;;;;;7.75;3.05;;;;;;;16.12;100.00;102044.38;4972885;28;20158;-68
2023/06/07 10:10:07;;;;;;;6.53;2.58;;;;;;;16.21;100.00;102045.81;4974896;28;20065;-69
2023/06/07 10:12:41;;;;;;;8.10;2.95;;;;;;;15.94;100.00;102043.34;4943053;28;20133;-68
2023/06/07 10:15:11;;;;;;;10.00;3.60;;;;;;;16.03;100.00;102037.69;4972250;28;20508;-68
2023/06/07 10:18:15;;;;;;;6.28;2.60;;;;;;;16.67;100.00;102039.47;4970050;28;20129;-68
2023/06/07 10:21:01;;;;;;;10.73;3.28;;;;;;;16.18;100.00;102048.56;4969288;28;20452;-68
2023/06/07 10:23:33;;;;;;;7.63;2.97;;;;;;;16.32;100.00;102044.47;4972589;28;20063;-68
2023/06/07 10:26:12;;;;;;;7.03;2.53;;;;;;;16.17;100.00;102038.94;4970663;28;20058;-68
2023/06/07 10:28:46;;;;;;;7.82;2.50;;;;;;;16.78;100.00;102032.84;4972666;28;20086;-68
2023/06/07 10:31:16;;;;;;;7.68;2.90;;;;;;;16.88;100.00;102040.34;4973116;28;20101;-68
2023/06/07 10:33:44;;;;;;;8.10;2.90;;;;;;;16.49;100.00;102035.81;4973436;28;20051;-69
2023/06/07 10:36:12;;;;;;;9.05;3.30;;;;;;;16.64;100.00;102036.09;4972114;28;20049;-68
2023/06/07 10:38:39;;;;;;;9.20;3.28;;;;;;;16.31;100.00;102045.38;4972384;28;20451;-68
2023/06/07 10:41:06;;;;;;;7.55;2.92;;;;;;;16.48;100.00;102034.09;4972554;28;20134;-68
2023/06/07 10:43:34;;;;;;;8.32;3.08;;;;;;;16.37;100.00;102053.97;4972669;28;20050;-68
2023/06/07 10:46:23;;;;;;;7.53;3.22;;;;;;;16.21;100.00;102051.94;4972540;28;20061;-68
2023/06/07 10:48:52;;;;;;;10.90;3.70;;;;;;;16.50;100.00;102045.47;4973299;28;20456;-68
2023/06/07 10:51:44;;;;;;;7.70;3.05;;;;;;;16.86;100.00;102038.72;4972863;28;20234;-68
2023/06/07 10:54:21;;;;;;;8.82;3.35;;;;;;;16.10;100.00;102052.38;4972274;28;20385;-69
2023/06/07 10:56:51;;;;;;;7.65;2.95;;;;;;;16.16;100.00;102050.41;4971783;28;20094;-68
2023/06/07 10:59:22;;;;;;;7.72;2.67;;;;;;;16.39;100.00;102052.13;4972693;28;20421;-68
2023/06/07 11:01:52;;;;;;;8.05;3.13;;;;;;;16.85;100.00;102034.34;4955336;28;20109;-68
2023/06/07 11:04:31;;;;;;;8.98;3.15;;;;;;;16.66;100.00;102058.03;4971990;28;20050;-68
2023/06/07 11:07:18;;;;;;;9.60;3.05;;;;;;;16.86;100.00;102047.50;4972179;28;20429;-68
2023/06/07 11:09:48;;;;;;;9.02;3.45;;;;;;;16.85;100.00;102040.47;4972610;28;20138;-69
2023/06/07 11:12:35;;;;;;;7.47;2.88;;;;;;;16.55;100.00;102047.06;4968638;28;20055;-68
2023/06/07 11:15:17;;;;;;;7.93;2.88;;;;;;;16.73;100.00;102048.06;4959121;28;20054;-68
2023/06/07 11:17:55;;;;;;;6.50;2.50;;;;;;;17.16;100.00;102040.94;4984798;28;20066;-68
2023/06/07 11:20:37;;;;;;;10.23;3.60;;;;;;;17.12;100.00;102039.34;4958700;28;20082;-68
2023/06/07 11:23:26;;;;;;;7.95;3.17;;;;;;;16.71;100.00;102040.19;4960774;28;20051;-68
2023/06/07 11:26:06;;;;;;;9.18;3.25;;;;;;;17.27;100.00;102038.66;4960769;28;20090;-68